sensor_id;sensor_type;location;lat;lon;timestamp;P1;durP1;ratioP1;P2;durP2;ratioP2
55312;SDS011;46892;45.668;11.756;2024-03-23T00:55:44;31.27;;;20.77;;
55312;SDS011;46892;45.668;11.756;2024-03-23T00:58:10;29.73;;;20.60;;
55312;SDS011;46892;45.668;11.756;2024-03-23T01:00:35;34.50;;;21.70;;
55312;SDS011;46892;45.668;11.756;2024-03-23T01:03:01;28.50;;;19.23;;
55312;SDS011;46892;45.668;11.756;2024-03-23T01:05:27;29.33;;;20.13;;
55312;SDS011;46892;45.668;11.756;2024-03-23T01:07:52;30.10;;;20.50;;
55312;SDS011;46892;45.668;11.756;2024-03-23T01:10:18;32.27;;;21.13;;
55312;SDS011;46892;45.668;11.756;2024-03-23T01:12:44;28.73;;;20.73;;
55312;SDS011;46892;45.668;11.756;2024-03-23T01:15:09;29.63;;;19.73;;
55312;SDS011;46892;45.668;11.756;2024-03-23T01:17:35;28.83;;;19.70;;
55312;SDS011;46892;45.668;11.756;2024-03-23T01:20:01;27.73;;;19.83;;
55312;SDS011;46892;45.668;11.756;2024-03-23T01:22:27;26.77;;;19.30;;
55312;SDS011;46892;45.668;11.756;2024-03-23T01:24:52;28.10;;;19.87;;
55312;SDS011;46892;45.668;11.756;2024-03-23T01:27:18;31.63;;;20.93;;
55312;SDS011;46892;45.668;11.756;2024-03-23T01:29:44;29.10;;;20.23;;
55312;SDS011;46892;45.668;11.756;2024-03-23T01:32:10;30.23;;;20.87;;
55312;SDS011;46892;45.668;11.756;2024-03-23T01:34:35;27.57;;;21.23;;
55312;SDS011;46892;45.668;11.756;2024-03-23T01:37:01;27.17;;;19.00;;
55312;SDS011;46892;45.668;11.756;2024-03-23T01:39:27;29.87;;;20.57;;
55312;SDS011;46892;45.668;11.756;2024-03-23T01:41:52;36.17;;;21.00;;
55312;SDS011;46892;45.668;11.756;2024-03-23T01:44:18;31.10;;;20.73;;
55312;SDS011;46892;45.668;11.756;2024-03-23T01:46:44;33.03;;;21.43;;
55312;SDS011;46892;45.668;11.756;2024-03-23T01:49:10;32.00;;;20.27;;
55312;SDS011;46892;45.668;11.756;2024-03-23T01:51:36;32.60;;;21.17;;
55312;SDS011;46892;45.668;11.756;2024-03-23T01:54:03;30.30;;;20.77;;
55312;SDS011;46892;45.668;11.756;2024-03-23T01:56:35;30.47;;;20.23;;
55312;SDS011;46892;45.668;11.756;2024-03-23T01:59:04;34.50;;;24.10;;
55312;SDS011;46892;45.668;11.756;2024-03-23T02:01:31;32.20;;;21.20;;
55312;SDS011;46892;45.668;11.756;2024-03-23T02:03:57;38.10;;;22.50;;
55312;SDS011;46892;45.668;11.756;2024-03-23T02:06:26;36.73;;;24.03;;
55312;SDS011;46892;45.668;11.756;2024-03-23T02:08:53;37.93;;;25.37;;
55312;SDS011;46892;45.668;11.756;2024-03-23T02:11:19;36.57;;;25.33;;
55312;SDS011;46892;45.668;11.756;2024-03-23T02:13:45;42.20;;;26.43;;
55312;SDS011;46892;45.668;11.756;2024-03-23T02:16:11;36.77;;;26.27;;
55312;SDS011;46892;45.668;11.756;2024-03-23T02:18:38;35.13;;;24.07;;
55312;SDS011;46892;45.668;11.756;2024-03-23T02:21:04;37.50;;;26.60;;
55312;SDS011;46892;45.668;11.756;2024-03-23T02:23:29;32.80;;;22.77;;
55312;SDS011;46892;45.668;11.756;2024-03-23T02:25:55;40.13;;;25.63;;
55312;SDS011;46892;45.668;11.756;2024-03-23T02:28:21;38.50;;;25.53;;
55312;SDS011;46892;45.668;11.756;2024-03-23T02:30:50;39.97;;;25.87;;
55312;SDS011;46892;45.668;11.756;2024-03-23T02:33:16;43.30;;;27.70;;
55312;SDS011;46892;45.668;11.756;2024-03-23T02:35:45;36.47;;;25.23;;
55312;SDS011;46892;45.668;11.756;2024-03-23T02:38:11;37.03;;;24.70;;
55312;SDS011;46892;45.668;11.756;2024-03-23T02:40:37;35.97;;;25.03;;
55312;SDS011;46892;45.668;11.756;2024-03-23T02:43:03;34.50;;;23.93;;
55312;SDS011;46892;45.668;11.756;2024-03-23T02:45:29;36.73;;;25.13;;
55312;SDS011;46892;45.668;11.756;2024-03-23T02:47:55;36.47;;;25.50;;
55312;SDS011;46892;45.668;11.756;2024-03-23T02:50:21;34.13;;;24.27;;
55312;SDS011;46892;45.668;11.756;2024-03-23T02:52:47;35.40;;;24.60;;
55312;SDS011;46892;45.668;11.756;2024-03-23T02:55:13;33.97;;;24.03;;
55312;SDS011;46892;45.668;11.756;2024-03-23T02:57:39;35.57;;;24.70;;
55312;SDS011;46892;45.668;11.756;2024-03-23T03:00:05;34.87;;;23.20;;
55312;SDS011;46892;45.668;11.756;2024-03-23T03:02:32;37.30;;;24.10;;
55312;SDS011;46892;45.668;11.756;2024-03-23T03:04:58;34.83;;;24.23;;
55312;SDS011;46892;45.668;11.756;2024-03-23T03:07:24;35.23;;;24.27;;
55312;SDS011;46892;45.668;11.756;2024-03-23T03:09:49;35.30;;;23.43;;
55312;SDS011;46892;45.668;11.756;2024-03-23T03:12:15;29.50;;;21.50;;
55312;SDS011;46892;45.668;11.756;2024-03-23T03:14:41;34.97;;;24.20;;
55312;SDS011;46892;45.668;11.756;2024-03-23T03:17:07;36.17;;;24.90;;
55312;SDS011;46892;45.668;11.756;2024-03-23T03:19:33;37.07;;;24.83;;
55312;SDS011;46892;45.668;11.756;2024-03-23T03:21:59;38.00;;;24.83;;
55312;SDS011;46892;45.668;11.756;2024-03-23T03:24:25;34.73;;;23.77;;
55312;SDS011;46892;45.668;11.756;2024-03-23T03:26:50;34.00;;;24.40;;
55312;SDS011;46892;45.668;11.756;2024-03-23T03:29:16;30.13;;;21.23;;
55312;SDS011;46892;45.668;11.756;2024-03-23T03:31:42;29.70;;;21.37;;
55312;SDS011;46892;45.668;11.756;2024-03-23T03:34:09;34.27;;;22.63;;
55312;SDS011;46892;45.668;11.756;2024-03-23T03:36:34;30.53;;;22.13;;
55312;SDS011;46892;45.668;11.756;2024-03-23T03:39:00;28.30;;;20.57;;
55312;SDS011;46892;45.668;11.756;2024-03-23T03:41:28;34.60;;;25.07;;
55312;SDS011;46892;45.668;11.756;2024-03-23T03:43:54;34.93;;;24.50;;
55312;SDS011;46892;45.668;11.756;2024-03-23T03:46:20;30.73;;;24.40;;
55312;SDS011;46892;45.668;11.756;2024-03-23T03:48:46;36.13;;;23.90;;
55312;SDS011;46892;45.668;11.756;2024-03-23T03:51:13;32.20;;;24.00;;
55312;SDS011;46892;45.668;11.756;2024-03-23T03:53:39;28.97;;;21.80;;
55312;SDS011;46892;45.668;11.756;2024-03-23T03:56:05;33.33;;;25.40;;
55312;SDS011;46892;45.668;11.756;2024-03-23T03:58:30;31.60;;;24.40;;
55312;SDS011;46892;45.668;11.756;2024-03-23T04:00:56;33.97;;;24.27;;
55312;SDS011;46892;45.668;11.756;2024-03-23T04:03:22;34.67;;;24.47;;
55312;SDS011;46892;45.668;11.756;2024-03-23T04:05:54;39.10;;;24.73;;
55312;SDS011;46892;45.668;11.756;2024-03-23T04:08:20;36.60;;;22.90;;
55312;SDS011;46892;45.668;11.756;2024-03-23T04:10:46;33.37;;;23.47;;
55312;SDS011;46892;45.668;11.756;2024-03-23T04:13:12;32.33;;;22.53;;
55312;SDS011;46892;45.668;11.756;2024-03-23T04:15:39;32.57;;;23.30;;
55312;SDS011;46892;45.668;11.756;2024-03-23T04:18:05;33.03;;;23.60;;
55312;SDS011;46892;45.668;11.756;2024-03-23T04:20:30;30.27;;;22.37;;
55312;SDS011;46892;45.668;11.756;2024-03-23T04:22:57;30.40;;;20.87;;
55312;SDS011;46892;45.668;11.756;2024-03-23T04:25:26;28.77;;;21.80;;
55312;SDS011;46892;45.668;11.756;2024-03-23T04:27:51;29.30;;;21.53;;
55312;SDS011;46892;45.668;11.756;2024-03-23T04:30:17;28.50;;;21.17;;
55312;SDS011;46892;45.668;11.756;2024-03-23T04:32:44;28.50;;;21.50;;
55312;SDS011;46892;45.668;11.756;2024-03-23T04:35:10;27.37;;;19.83;;
55312;SDS011;46892;45.668;11.756;2024-03-23T04:37:36;29.47;;;20.30;;
55312;SDS011;46892;45.668;11.756;2024-03-23T04:40:02;27.63;;;20.30;;
55312;SDS011;46892;45.668;11.756;2024-03-23T04:42:29;29.30;;;20.57;;
55312;SDS011;46892;45.668;11.756;2024-03-23T04:44:56;28.97;;;19.93;;
55312;SDS011;46892;45.668;11.756;2024-03-23T04:47:21;28.27;;;19.30;;
55312;SDS011;46892;45.668;11.756;2024-03-23T04:49:47;28.07;;;19.80;;
55312;SDS011;46892;45.668;11.756;2024-03-23T04:52:13;26.10;;;19.10;;
55312;SDS011;46892;45.668;11.756;2024-03-23T04:54:40;25.17;;;19.13;;
55312;SDS011;46892;45.668;11.756;2024-03-23T04:57:06;24.87;;;17.30;;
55312;SDS011;46892;45.668;11.756;2024-03-23T04:59:32;24.50;;;17.83;;
55312;SDS011;46892;45.668;11.756;2024-03-23T05:01:58;29.13;;;19.90;;
55312;SDS011;46892;45.668;11.756;2024-03-23T05:04:24;25.83;;;18.87;;
55312;SDS011;46892;45.668;11.756;2024-03-23T05:06:50;23.03;;;17.30;;
55312;SDS011;46892;45.668;11.756;2024-03-23T05:09:16;22.40;;;16.30;;
55312;SDS011;46892;45.668;11.756;2024-03-23T05:11:42;19.67;;;14.87;;
55312;SDS011;46892;45.668;11.756;2024-03-23T05:14:08;34.37;;;27.20;;
55312;SDS011;46892;45.668;11.756;2024-03-23T05:16:33;23.77;;;16.63;;
55312;SDS011;46892;45.668;11.756;2024-03-23T05:18:59;20.30;;;14.37;;
55312;SDS011;46892;45.668;11.756;2024-03-23T05:21:26;22.70;;;15.43;;
55312;SDS011;46892;45.668;11.756;2024-03-23T05:23:53;21.50;;;15.73;;
55312;SDS011;46892;45.668;11.756;2024-03-23T05:26:19;27.30;;;17.10;;
55312;SDS011;46892;45.668;11.756;2024-03-23T05:28:45;29.77;;;18.13;;
55312;SDS011;46892;45.668;11.756;2024-03-23T05:31:11;29.77;;;17.03;;
55312;SDS011;46892;45.668;11.756;2024-03-23T05:33:36;22.13;;;15.63;;
55312;SDS011;46892;45.668;11.756;2024-03-23T05:36:06;28.27;;;18.23;;
55312;SDS011;46892;45.668;11.756;2024-03-23T05:38:36;27.58;;;18.63;;
55312;SDS011;46892;45.668;11.756;2024-03-23T05:41:01;27.47;;;17.73;;
55312;SDS011;46892;45.668;11.756;2024-03-23T05:43:27;26.10;;;17.37;;
55312;SDS011;46892;45.668;11.756;2024-03-23T05:45:56;22.50;;;16.17;;
55312;SDS011;46892;45.668;11.756;2024-03-23T05:48:30;24.97;;;16.27;;
55312;SDS011;46892;45.668;11.756;2024-03-23T05:50:56;21.43;;;15.73;;
55312;SDS011;46892;45.668;11.756;2024-03-23T05:53:23;22.13;;;15.33;;
55312;SDS011;46892;45.668;11.756;2024-03-23T05:55:49;21.00;;;14.73;;
55312;SDS011;46892;45.668;11.756;2024-03-23T05:58:15;18.73;;;13.80;;
55312;SDS011;46892;45.668;11.756;2024-03-23T06:00:42;16.43;;;12.10;;
55312;SDS011;46892;45.668;11.756;2024-03-23T06:03:08;17.93;;;13.27;;
55312;SDS011;46892;45.668;11.756;2024-03-23T06:05:35;20.47;;;14.07;;
55312;SDS011;46892;45.668;11.756;2024-03-23T06:08:01;20.33;;;14.40;;
55312;SDS011;46892;45.668;11.756;2024-03-23T06:10:27;20.83;;;14.47;;
55312;SDS011;46892;45.668;11.756;2024-03-23T06:12:53;20.93;;;14.57;;
55312;SDS011;46892;45.668;11.756;2024-03-23T06:15:19;20.40;;;14.40;;
55312;SDS011;46892;45.668;11.756;2024-03-23T06:17:45;23.30;;;14.90;;
55312;SDS011;46892;45.668;11.756;2024-03-23T06:20:11;20.80;;;14.13;;
55312;SDS011;46892;45.668;11.756;2024-03-23T06:22:38;19.57;;;14.07;;
55312;SDS011;46892;45.668;11.756;2024-03-23T06:25:04;23.07;;;14.33;;
55312;SDS011;46892;45.668;11.756;2024-03-23T06:27:30;22.27;;;14.97;;
55312;SDS011;46892;45.668;11.756;2024-03-23T06:29:57;22.63;;;14.27;;
55312;SDS011;46892;45.668;11.756;2024-03-23T06:32:23;19.90;;;14.93;;
55312;SDS011;46892;45.668;11.756;2024-03-23T06:34:49;18.77;;;13.47;;
55312;SDS011;46892;45.668;11.756;2024-03-23T06:37:14;21.80;;;13.50;;
55312;SDS011;46892;45.668;11.756;2024-03-23T06:39:40;21.10;;;13.33;;
55312;SDS011;46892;45.668;11.756;2024-03-23T06:42:06;25.17;;;13.33;;
55312;SDS011;46892;45.668;11.756;2024-03-23T06:44:33;18.63;;;13.20;;
55312;SDS011;46892;45.668;11.756;2024-03-23T06:46:59;19.13;;;13.40;;
55312;SDS011;46892;45.668;11.756;2024-03-23T06:49:25;16.10;;;12.47;;
55312;SDS011;46892;45.668;11.756;2024-03-23T06:51:51;18.67;;;13.33;;
55312;SDS011;46892;45.668;11.756;2024-03-23T06:54:17;17.90;;;13.20;;
55312;SDS011;46892;45.668;11.756;2024-03-23T06:56:48;20.47;;;13.70;;
55312;SDS011;46892;45.668;11.756;2024-03-23T06:59:20;20.23;;;14.70;;
55312;SDS011;46892;45.668;11.756;2024-03-23T07:01:46;20.73;;;14.67;;
55312;SDS011;46892;45.668;11.756;2024-03-23T07:04:12;25.57;;;16.23;;
55312;SDS011;46892;45.668;11.756;2024-03-23T07:06:45;22.27;;;16.00;;
55312;SDS011;46892;45.668;11.756;2024-03-23T07:09:11;20.17;;;15.53;;
55312;SDS011;46892;45.668;11.756;2024-03-23T07:11:37;22.83;;;14.57;;
55312;SDS011;46892;45.668;11.756;2024-03-23T07:14:03;23.53;;;16.57;;
55312;SDS011;46892;45.668;11.756;2024-03-23T07:16:29;21.73;;;15.77;;
55312;SDS011;46892;45.668;11.756;2024-03-23T07:18:55;39.90;;;24.20;;
55312;SDS011;46892;45.668;11.756;2024-03-23T07:21:21;49.23;;;30.10;;
55312;SDS011;46892;45.668;11.756;2024-03-23T07:23:47;23.47;;;17.13;;
55312;SDS011;46892;45.668;11.756;2024-03-23T07:26:13;23.87;;;17.37;;
55312;SDS011;46892;45.668;11.756;2024-03-23T07:28:39;27.00;;;17.67;;
55312;SDS011;46892;45.668;11.756;2024-03-23T07:31:12;22.00;;;16.77;;
55312;SDS011;46892;45.668;11.756;2024-03-23T07:33:48;25.30;;;17.57;;
55312;SDS011;46892;45.668;11.756;2024-03-23T07:36:14;26.60;;;18.57;;
55312;SDS011;46892;45.668;11.756;2024-03-23T07:38:40;25.40;;;18.00;;
55312;SDS011;46892;45.668;11.756;2024-03-23T07:41:07;25.87;;;18.80;;
55312;SDS011;46892;45.668;11.756;2024-03-23T07:43:38;27.00;;;18.73;;
55312;SDS011;46892;45.668;11.756;2024-03-23T07:48:31;27.50;;;19.20;;
55312;SDS011;46892;45.668;11.756;2024-03-23T07:51:04;25.23;;;18.13;;
55312;SDS011;46892;45.668;11.756;2024-03-23T07:53:36;30.23;;;19.20;;
55312;SDS011;46892;45.668;11.756;2024-03-23T07:56:03;26.13;;;18.37;;
55312;SDS011;46892;45.668;11.756;2024-03-23T07:58:29;25.40;;;19.77;;
55312;SDS011;46892;45.668;11.756;2024-03-23T08:00:55;29.23;;;19.10;;
55312;SDS011;46892;45.668;11.756;2024-03-23T08:03:21;28.80;;;20.00;;
55312;SDS011;46892;45.668;11.756;2024-03-23T08:05:48;28.10;;;19.60;;
55312;SDS011;46892;45.668;11.756;2024-03-23T08:08:14;27.73;;;20.00;;
55312;SDS011;46892;45.668;11.756;2024-03-23T08:10:49;26.50;;;19.80;;
55312;SDS011;46892;45.668;11.756;2024-03-23T08:13:16;28.13;;;19.83;;
55312;SDS011;46892;45.668;11.756;2024-03-23T08:15:42;27.70;;;18.97;;
55312;SDS011;46892;45.668;11.756;2024-03-23T08:18:09;26.40;;;19.53;;
55312;SDS011;46892;45.668;11.756;2024-03-23T08:20:40;28.90;;;20.33;;
55312;SDS011;46892;45.668;11.756;2024-03-23T08:23:07;26.13;;;20.07;;
55312;SDS011;46892;45.668;11.756;2024-03-23T08:25:33;26.50;;;20.63;;
55312;SDS011;46892;45.668;11.756;2024-03-23T08:28:00;27.37;;;20.83;;
55312;SDS011;46892;45.668;11.756;2024-03-23T08:30:26;26.43;;;19.97;;
55312;SDS011;46892;45.668;11.756;2024-03-23T08:32:54;27.53;;;21.03;;
55312;SDS011;46892;45.668;11.756;2024-03-23T08:35:19;27.90;;;20.07;;
55312;SDS011;46892;45.668;11.756;2024-03-23T08:37:45;25.43;;;19.70;;
55312;SDS011;46892;45.668;11.756;2024-03-23T08:40:11;26.97;;;19.27;;
55312;SDS011;46892;45.668;11.756;2024-03-23T08:42:37;25.83;;;19.03;;
55312;SDS011;46892;45.668;11.756;2024-03-23T08:45:03;26.77;;;20.23;;
55312;SDS011;46892;45.668;11.756;2024-03-23T08:47:29;27.43;;;19.73;;
55312;SDS011;46892;45.668;11.756;2024-03-23T08:49:59;27.27;;;19.83;;
55312;SDS011;46892;45.668;11.756;2024-03-23T08:52:25;27.43;;;20.43;;
55312;SDS011;46892;45.668;11.756;2024-03-23T08:54:53;26.20;;;20.60;;
55312;SDS011;46892;45.668;11.756;2024-03-23T08:57:19;29.07;;;20.87;;
55312;SDS011;46892;45.668;11.756;2024-03-23T08:59:44;25.50;;;18.90;;
55312;SDS011;46892;45.668;11.756;2024-03-23T09:02:10;29.80;;;19.90;;
55312;SDS011;46892;45.668;11.756;2024-03-23T09:04:36;25.57;;;20.00;;
55312;SDS011;46892;45.668;11.756;2024-03-23T09:07:02;26.73;;;20.23;;
55312;SDS011;46892;45.668;11.756;2024-03-23T09:09:27;26.77;;;19.40;;
55312;SDS011;46892;45.668;11.756;2024-03-23T09:11:53;26.63;;;19.73;;
55312;SDS011;46892;45.668;11.756;2024-03-23T09:14:19;27.73;;;20.17;;
55312;SDS011;46892;45.668;11.756;2024-03-23T09:16:44;28.47;;;20.33;;
55312;SDS011;46892;45.668;11.756;2024-03-23T09:19:10;26.70;;;19.63;;
55312;SDS011;46892;45.668;11.756;2024-03-23T09:21:36;25.97;;;19.33;;
55312;SDS011;46892;45.668;11.756;2024-03-23T09:24:03;26.20;;;20.20;;
55312;SDS011;46892;45.668;11.756;2024-03-23T09:26:29;27.67;;;19.90;;
55312;SDS011;46892;45.668;11.756;2024-03-23T09:28:55;25.83;;;19.87;;
55312;SDS011;46892;45.668;11.756;2024-03-23T09:31:21;28.10;;;20.93;;
55312;SDS011;46892;45.668;11.756;2024-03-23T09:33:47;25.50;;;18.90;;
55312;SDS011;46892;45.668;11.756;2024-03-23T09:36:13;24.90;;;19.20;;
55312;SDS011;46892;45.668;11.756;2024-03-23T09:38:38;26.73;;;19.90;;
55312;SDS011;46892;45.668;11.756;2024-03-23T09:41:08;26.57;;;19.20;;
55312;SDS011;46892;45.668;11.756;2024-03-23T09:43:35;26.63;;;19.40;;
55312;SDS011;46892;45.668;11.756;2024-03-23T09:46:03;27.93;;;18.80;;
55312;SDS011;46892;45.668;11.756;2024-03-23T09:48:30;25.07;;;18.80;;
55312;SDS011;46892;45.668;11.756;2024-03-23T09:50:56;26.13;;;19.50;;
55312;SDS011;46892;45.668;11.756;2024-03-23T09:53:22;27.70;;;19.87;;
55312;SDS011;46892;45.668;11.756;2024-03-23T09:55:48;24.30;;;18.73;;
55312;SDS011;46892;45.668;11.756;2024-03-23T09:58:17;26.33;;;19.37;;
55312;SDS011;46892;45.668;11.756;2024-03-23T10:00:43;29.60;;;21.33;;
55312;SDS011;46892;45.668;11.756;2024-03-23T10:03:10;28.63;;;19.77;;
55312;SDS011;46892;45.668;11.756;2024-03-23T10:05:36;26.13;;;19.80;;
55312;SDS011;46892;45.668;11.756;2024-03-23T10:10:41;29.00;;;20.83;;
55312;SDS011;46892;45.668;11.756;2024-03-23T10:13:07;24.40;;;18.87;;
55312;SDS011;46892;45.668;11.756;2024-03-23T10:15:36;29.40;;;19.43;;
55312;SDS011;46892;45.668;11.756;2024-03-23T10:18:18;25.90;;;19.03;;
55312;SDS011;46892;45.668;11.756;2024-03-23T10:20:51;25.40;;;18.50;;
55312;SDS011;46892;45.668;11.756;2024-03-23T10:23:31;27.07;;;20.03;;
55312;SDS011;46892;45.668;11.756;2024-03-23T10:31:26;26.03;;;19.07;;
55312;SDS011;46892;45.668;11.756;2024-03-23T10:33:58;25.67;;;17.93;;
55312;SDS011;46892;45.668;11.756;2024-03-23T10:36:26;25.40;;;16.97;;
55312;SDS011;46892;45.668;11.756;2024-03-23T10:38:54;22.37;;;17.47;;
55312;SDS011;46892;45.668;11.756;2024-03-23T10:41:20;24.23;;;18.07;;
55312;SDS011;46892;45.668;11.756;2024-03-23T10:43:48;25.13;;;18.23;;
55312;SDS011;46892;45.668;11.756;2024-03-23T10:46:14;25.53;;;18.27;;
55312;SDS011;46892;45.668;11.756;2024-03-23T10:48:41;23.97;;;17.87;;
55312;SDS011;46892;45.668;11.756;2024-03-23T10:51:08;24.20;;;18.57;;
55312;SDS011;46892;45.668;11.756;2024-03-23T10:53:35;26.43;;;18.43;;
55312;SDS011;46892;45.668;11.756;2024-03-23T10:56:02;27.00;;;19.07;;
55312;SDS011;46892;45.668;11.756;2024-03-23T10:58:39;25.33;;;20.07;;
55312;SDS011;46892;45.668;11.756;2024-03-23T11:01:12;26.17;;;19.50;;
55312;SDS011;46892;45.668;11.756;2024-03-23T11:03:38;29.50;;;20.43;;
55312;SDS011;46892;45.668;11.756;2024-03-23T11:06:09;24.03;;;18.37;;
55312;SDS011;46892;45.668;11.756;2024-03-23T11:13:47;26.33;;;20.20;;
55312;SDS011;46892;45.668;11.756;2024-03-23T11:16:22;25.10;;;19.67;;
55312;SDS011;46892;45.668;11.756;2024-03-23T11:22:03;36.00;;;21.67;;
55312;SDS011;46892;45.668;11.756;2024-03-23T11:24:31;27.57;;;19.60;;
55312;SDS011;46892;45.668;11.756;2024-03-23T11:26:57;24.53;;;18.43;;
55312;SDS011;46892;45.668;11.756;2024-03-23T11:29:29;26.13;;;18.93;;
55312;SDS011;46892;45.668;11.756;2024-03-23T11:31:55;26.00;;;18.87;;
55312;SDS011;46892;45.668;11.756;2024-03-23T11:34:21;27.03;;;19.73;;
55312;SDS011;46892;45.668;11.756;2024-03-23T11:36:47;24.70;;;18.63;;
55312;SDS011;46892;45.668;11.756;2024-03-23T11:39:19;26.47;;;20.03;;
55312;SDS011;46892;45.668;11.756;2024-03-23T11:44:21;25.37;;;18.97;;
55312;SDS011;46892;45.668;11.756;2024-03-23T11:46:48;26.70;;;20.20;;
55312;SDS011;46892;45.668;11.756;2024-03-23T11:49:21;27.23;;;19.33;;
55312;SDS011;46892;45.668;11.756;2024-03-23T11:51:56;24.42;;;18.77;;
55312;SDS011;46892;45.668;11.756;2024-03-23T11:54:23;28.93;;;20.57;;
55312;SDS011;46892;45.668;11.756;2024-03-23T11:56:59;25.03;;;19.50;;
55312;SDS011;46892;45.668;11.756;2024-03-23T11:59:38;28.80;;;20.00;;
55312;SDS011;46892;45.668;11.756;2024-03-23T12:02:09;27.07;;;20.60;;
55312;SDS011;46892;45.668;11.756;2024-03-23T12:04:36;25.30;;;19.67;;
55312;SDS011;46892;45.668;11.756;2024-03-23T12:07:10;25.87;;;20.07;;
55312;SDS011;46892;45.668;11.756;2024-03-23T12:09:36;28.63;;;21.07;;
55312;SDS011;46892;45.668;11.756;2024-03-23T12:12:20;28.90;;;20.67;;
55312;SDS011;46892;45.668;11.756;2024-03-23T12:15:00;26.43;;;18.53;;
55312;SDS011;46892;45.668;11.756;2024-03-23T12:17:27;26.00;;;20.20;;
55312;SDS011;46892;45.668;11.756;2024-03-23T12:19:53;27.60;;;20.50;;
55312;SDS011;46892;45.668;11.756;2024-03-23T12:22:22;30.30;;;20.83;;
55312;SDS011;46892;45.668;11.756;2024-03-23T12:24:48;29.67;;;21.07;;
55312;SDS011;46892;45.668;11.756;2024-03-23T12:27:14;27.93;;;20.53;;
55312;SDS011;46892;45.668;11.756;2024-03-23T12:29:40;28.20;;;20.90;;
55312;SDS011;46892;45.668;11.756;2024-03-23T12:32:08;27.47;;;20.17;;
55312;SDS011;46892;45.668;11.756;2024-03-23T12:34:34;27.80;;;21.27;;
55312;SDS011;46892;45.668;11.756;2024-03-23T12:37:00;27.93;;;20.73;;
55312;SDS011;46892;45.668;11.756;2024-03-23T12:39:26;28.27;;;20.97;;
55312;SDS011;46892;45.668;11.756;2024-03-23T12:41:52;27.07;;;19.87;;
55312;SDS011;46892;45.668;11.756;2024-03-23T12:44:18;28.23;;;19.90;;
55312;SDS011;46892;45.668;11.756;2024-03-23T12:46:44;29.23;;;20.50;;
55312;SDS011;46892;45.668;11.756;2024-03-23T12:49:10;27.33;;;20.67;;
55312;SDS011;46892;45.668;11.756;2024-03-23T12:51:36;28.67;;;21.97;;
55312;SDS011;46892;45.668;11.756;2024-03-23T12:54:02;28.83;;;20.23;;
55312;SDS011;46892;45.668;11.756;2024-03-23T12:56:29;27.73;;;21.00;;
55312;SDS011;46892;45.668;11.756;2024-03-23T12:58:56;28.03;;;20.87;;
55312;SDS011;46892;45.668;11.756;2024-03-23T13:01:25;28.05;;;20.42;;
55312;SDS011;46892;45.668;11.756;2024-03-23T13:03:51;28.70;;;21.27;;
55312;SDS011;46892;45.668;11.756;2024-03-23T13:06:18;27.77;;;20.17;;
55312;SDS011;46892;45.668;11.756;2024-03-23T13:08:44;27.97;;;20.20;;
55312;SDS011;46892;45.668;11.756;2024-03-23T13:11:10;29.37;;;21.70;;
55312;SDS011;46892;45.668;11.756;2024-03-23T13:13:37;28.60;;;19.93;;
55312;SDS011;46892;45.668;11.756;2024-03-23T13:16:03;29.10;;;20.50;;
55312;SDS011;46892;45.668;11.756;2024-03-23T13:18:30;24.30;;;18.77;;
55312;SDS011;46892;45.668;11.756;2024-03-23T13:20:57;27.67;;;19.60;;
55312;SDS011;46892;45.668;11.756;2024-03-23T13:23:26;27.90;;;20.77;;
55312;SDS011;46892;45.668;11.756;2024-03-23T13:25:52;29.10;;;20.40;;
55312;SDS011;46892;45.668;11.756;2024-03-23T13:28:19;28.10;;;21.40;;
55312;SDS011;46892;45.668;11.756;2024-03-23T13:30:51;26.87;;;19.30;;
55312;SDS011;46892;45.668;11.756;2024-03-23T13:33:21;26.33;;;18.37;;
55312;SDS011;46892;45.668;11.756;2024-03-23T13:35:53;27.17;;;19.90;;
55312;SDS011;46892;45.668;11.756;2024-03-23T13:38:20;28.33;;;19.73;;
55312;SDS011;46892;45.668;11.756;2024-03-23T13:40:56;23.90;;;17.70;;
55312;SDS011;46892;45.668;11.756;2024-03-23T13:43:23;26.30;;;19.30;;
55312;SDS011;46892;45.668;11.756;2024-03-23T13:45:54;23.97;;;18.30;;
55312;SDS011;46892;45.668;11.756;2024-03-23T13:48:21;23.53;;;17.87;;
55312;SDS011;46892;45.668;11.756;2024-03-23T13:50:56;26.90;;;20.10;;
55312;SDS011;46892;45.668;11.756;2024-03-23T13:53:25;28.63;;;19.47;;
55312;SDS011;46892;45.668;11.756;2024-03-23T13:55:51;25.83;;;18.00;;
55312;SDS011;46892;45.668;11.756;2024-03-23T13:58:18;26.80;;;18.77;;
55312;SDS011;46892;45.668;11.756;2024-03-23T14:00:44;23.20;;;17.57;;
55312;SDS011;46892;45.668;11.756;2024-03-23T14:03:12;24.13;;;18.73;;
55312;SDS011;46892;45.668;11.756;2024-03-23T14:05:39;27.40;;;20.17;;
55312;SDS011;46892;45.668;11.756;2024-03-23T14:08:06;26.77;;;20.30;;
55312;SDS011;46892;45.668;11.756;2024-03-23T14:10:36;27.77;;;20.27;;
55312;SDS011;46892;45.668;11.756;2024-03-23T14:13:05;27.07;;;19.03;;
55312;SDS011;46892;45.668;11.756;2024-03-23T14:15:30;25.90;;;18.37;;
55312;SDS011;46892;45.668;11.756;2024-03-23T14:17:56;22.90;;;18.07;;
55312;SDS011;46892;45.668;11.756;2024-03-23T14:20:22;24.93;;;17.43;;
55312;SDS011;46892;45.668;11.756;2024-03-23T14:22:51;23.27;;;17.20;;
55312;SDS011;46892;45.668;11.756;2024-03-23T14:25:17;24.53;;;17.67;;
55312;SDS011;46892;45.668;11.756;2024-03-23T14:27:43;24.10;;;17.43;;
55312;SDS011;46892;45.668;11.756;2024-03-23T14:30:10;24.00;;;16.33;;
55312;SDS011;46892;45.668;11.756;2024-03-23T14:32:37;22.80;;;16.27;;
55312;SDS011;46892;45.668;11.756;2024-03-23T14:35:04;22.37;;;16.70;;
55312;SDS011;46892;45.668;11.756;2024-03-23T14:37:38;22.93;;;16.63;;
55312;SDS011;46892;45.668;11.756;2024-03-23T14:40:07;23.17;;;17.03;;
55312;SDS011;46892;45.668;11.756;2024-03-23T14:42:33;23.70;;;17.03;;
55312;SDS011;46892;45.668;11.756;2024-03-23T14:44:59;23.80;;;16.13;;
55312;SDS011;46892;45.668;11.756;2024-03-23T14:47:25;22.10;;;15.57;;
55312;SDS011;46892;45.668;11.756;2024-03-23T14:49:51;21.27;;;15.17;;
55312;SDS011;46892;45.668;11.756;2024-03-23T14:52:17;23.37;;;16.63;;
55312;SDS011;46892;45.668;11.756;2024-03-23T14:54:46;24.17;;;16.40;;
55312;SDS011;46892;45.668;11.756;2024-03-23T14:57:12;25.43;;;17.33;;
55312;SDS011;46892;45.668;11.756;2024-03-23T14:59:37;26.20;;;18.10;;
55312;SDS011;46892;45.668;11.756;2024-03-23T15:02:07;23.53;;;17.07;;
55312;SDS011;46892;45.668;11.756;2024-03-23T15:04:33;23.67;;;16.67;;
55312;SDS011;46892;45.668;11.756;2024-03-23T15:06:59;26.30;;;17.40;;
55312;SDS011;46892;45.668;11.756;2024-03-23T15:09:25;23.77;;;17.27;;
55312;SDS011;46892;45.668;11.756;2024-03-23T15:11:50;23.00;;;15.10;;
55312;SDS011;46892;45.668;11.756;2024-03-23T15:14:16;24.57;;;17.10;;
55312;SDS011;46892;45.668;11.756;2024-03-23T15:16:42;26.90;;;17.20;;
55312;SDS011;46892;45.668;11.756;2024-03-23T15:19:08;20.97;;;15.80;;
55312;SDS011;46892;45.668;11.756;2024-03-23T15:21:34;25.03;;;17.70;;
55312;SDS011;46892;45.668;11.756;2024-03-23T15:24:01;23.33;;;17.20;;